sensor_id;sensor_type;location;lat;lon;timestamp;pressure;altitude;pressure_sealevel;temperature;humidity
33280;BME280;20403;43.114;12.434;2024-01-27T00:00:23;100190.53;;;7.21;100.00
33280;BME280;20403;43.114;12.434;2024-01-27T00:02:49;100194.41;;;7.25;100.00
33280;BME280;20403;43.114;12.434;2024-01-27T00:05:14;100201.03;;;7.27;100.00
33280;BME280;20403;43.114;12.434;2024-01-27T00:07:40;100195.66;;;7.29;100.00
33280;BME280;20403;43.114;12.434;2024-01-27T00:10:06;100200.06;;;7.28;100.00
33280;BME280;20403;43.114;12.434;2024-01-27T00:12:31;100197.75;;;7.33;100.00
33280;BME280;20403;43.114;12.434;2024-01-27T00:14:57;100193.19;;;7.35;100.00
33280;BME280;20403;43.114;12.434;2024-01-27T00:17:22;100211.53;;;7.34;100.00
33280;BME280;20403;43.114;12.434;2024-01-27T00:19:51;100216.25;;;7.30;100.00
33280;BME280;20403;43.114;12.434;2024-01-27T00:22:16;100205.53;;;7.33;100.00
33280;BME280;20403;43.114;12.434;2024-01-27T00:24:42;100201.41;;;7.39;100.00
33280;BME280;20403;43.114;12.434;2024-01-27T00:27:08;100198.75;;;7.32;100.00
33280;BME280;20403;43.114;12.434;2024-01-27T00:29:33;100197.38;;;7.36;100.00
33280;BME280;20403;43.114;12.434;2024-01-27T00:31:59;100196.94;;;7.33;100.00
33280;BME280;20403;43.114;12.434;2024-01-27T00:34:24;100193.34;;;7.34;100.00
33280;BME280;20403;43.114;12.434;2024-01-27T00:36:50;100201.25;;;7.41;100.00
33280;BME280;20403;43.114;12.434;2024-01-27T00:39:16;100190.41;;;7.37;100.00
33280;BME280;20403;43.114;12.434;2024-01-27T00:41:42;100203.72;;;7.34;100.00
33280;BME280;20403;43.114;12.434;2024-01-27T00:44:08;100216.06;;;7.32;100.00
33280;BME280;20403;43.114;12.434;2024-01-27T00:46:34;100207.47;;;7.31;100.00
33280;BME280;20403;43.114;12.434;2024-01-27T00:48:59;100204.59;;;7.26;100.00
33280;BME280;20403;43.114;12.434;2024-01-27T00:51:24;100202.81;;;7.27;100.00
33280;BME280;20403;43.114;12.434;2024-01-27T00:53:50;100209.63;;;7.28;100.00
33280;BME280;20403;43.114;12.434;2024-01-27T00:56:15;100203.63;;;7.27;100.00
33280;BME280;20403;43.114;12.434;2024-01-27T00:58:41;100207.47;;;7.31;100.00
33280;BME280;20403;43.114;12.434;2024-01-27T01:01:06;100207.84;;;7.28;100.00
33280;BME280;20403;43.114;12.434;2024-01-27T01:03:32;100201.84;;;7.28;100.00
33280;BME280;20403;43.114;12.434;2024-01-27T01:05:57;100204.44;;;7.28;100.00
33280;BME280;20403;43.114;12.434;2024-01-27T01:08:23;100201.34;;;7.32;100.00
33280;BME280;20403;43.114;12.434;2024-01-27T01:10:48;100206.16;;;7.35;100.00
33280;BME280;20403;43.114;12.434;2024-01-27T01:13:13;100202.66;;;7.28;100.00
33280;BME280;20403;43.114;12.434;2024-01-27T01:15:39;100202.97;;;7.25;100.00
33280;BME280;20403;43.114;12.434;2024-01-27T01:18:04;100212.91;;;7.22;100.00
33280;BME280;20403;43.114;12.434;2024-01-27T01:20:30;100217.94;;;7.23;100.00
33280;BME280;20403;43.114;12.434;2024-01-27T01:22:55;100219.19;;;7.27;100.00
33280;BME280;20403;43.114;12.434;2024-01-27T01:25:21;100220.94;;;7.35;100.00
33280;BME280;20403;43.114;12.434;2024-01-27T01:27:46;100213.16;;;7.35;100.00
33280;BME280;20403;43.114;12.434;2024-01-27T01:30:13;100212.84;;;7.30;100.00
33280;BME280;20403;43.114;12.434;2024-01-27T01:32:39;100214.00;;;7.27;100.00
33280;BME280;20403;43.114;12.434;2024-01-27T01:35:04;100212.38;;;7.26;100.00
33280;BME280;20403;43.114;12.434;2024-01-27T01:37:30;100207.03;;;7.28;100.00
33280;BME280;20403;43.114;12.434;2024-01-27T01:39:55;100220.16;;;7.26;100.00
33280;BME280;20403;43.114;12.434;2024-01-27T01:42:21;100211.75;;;7.24;100.00
33280;BME280;20403;43.114;12.434;2024-01-27T01:44:51;100214.69;;;7.21;100.00
33280;BME280;20403;43.114;12.434;2024-01-27T01:47:16;100214.22;;;7.18;100.00
33280;BME280;20403;43.114;12.434;2024-01-27T01:49:42;100212.25;;;7.20;100.00
33280;BME280;20403;43.114;12.434;2024-01-27T01:52:08;100207.88;;;7.20;100.00
33280;BME280;20403;43.114;12.434;2024-01-27T01:54:34;100200.28;;;7.19;100.00
33280;BME280;20403;43.114;12.434;2024-01-27T01:56:59;100202.41;;;7.15;100.00
33280;BME280;20403;43.114;12.434;2024-01-27T01:59:26;100205.00;;;7.15;100.00
33280;BME280;20403;43.114;12.434;2024-01-27T02:01:51;100205.28;;;7.20;100.00
33280;BME280;20403;43.114;12.434;2024-01-27T02:04:17;100203.97;;;7.24;100.00
33280;BME280;20403;43.114;12.434;2024-01-27T02:06:42;100208.06;;;7.19;100.00
33280;BME280;20403;43.114;12.434;2024-01-27T02:09:07;100206.59;;;7.16;100.00
33280;BME280;20403;43.114;12.434;2024-01-27T02:11:35;100210.03;;;7.17;100.00
33280;BME280;20403;43.114;12.434;2024-01-27T02:14:00;100208.22;;;7.17;100.00
33280;BME280;20403;43.114;12.434;2024-01-27T02:16:25;100205.63;;;7.17;100.00
33280;BME280;20403;43.114;12.434;2024-01-27T02:18:51;100204.84;;;7.17;100.00
33280;BME280;20403;43.114;12.434;2024-01-27T02:21:16;100199.00;;;7.14;100.00
33280;BME280;20403;43.114;12.434;2024-01-27T02:23:42;100194.63;;;7.15;100.00
33280;BME280;20403;43.114;12.434;2024-01-27T02:26:07;100198.38;;;7.12;100.00
33280;BME280;20403;43.114;12.434;2024-01-27T02:28:32;100201.75;;;7.13;100.00
33280;BME280;20403;43.114;12.434;2024-01-27T02:30:59;100199.53;;;7.10;100.00
33280;BME280;20403;43.114;12.434;2024-01-27T02:33:28;100192.38;;;7.12;100.00
33280;BME280;20403;43.114;12.434;2024-01-27T02:35:53;100207.75;;;7.13;100.00
33280;BME280;20403;43.114;12.434;2024-01-27T02:38:19;100197.22;;;7.15;100.00
33280;BME280;20403;43.114;12.434;2024-01-27T02:40:44;100196.53;;;7.21;100.00
33280;BME280;20403;43.114;12.434;2024-01-27T02:43:09;100212.91;;;7.22;100.00
33280;BME280;20403;43.114;12.434;2024-01-27T02:45:35;100218.25;;;7.20;100.00
33280;BME280;20403;43.114;12.434;2024-01-27T02:48:00;100215.66;;;7.20;100.00
33280;BME280;20403;43.114;12.434;2024-01-27T02:50:26;100218.72;;;7.24;100.00
33280;BME280;20403;43.114;12.434;2024-01-27T02:52:51;100207.66;;;7.30;100.00
33280;BME280;20403;43.114;12.434;2024-01-27T02:55:17;100210.88;;;7.32;100.00
33280;BME280;20403;43.114;12.434;2024-01-27T02:57:42;100208.75;;;7.35;100.00
33280;BME280;20403;43.114;12.434;2024-01-27T03:00:08;100205.16;;;7.36;100.00
33280;BME280;20403;43.114;12.434;2024-01-27T03:02:34;100204.38;;;7.36;100.00
33280;BME280;20403;43.114;12.434;2024-01-27T03:05:00;100211.34;;;7.35;100.00
33280;BME280;20403;43.114;12.434;2024-01-27T03:07:25;100204.53;;;7.34;100.00
33280;BME280;20403;43.114;12.434;2024-01-27T03:09:51;100210.06;;;7.31;100.00
33280;BME280;20403;43.114;12.434;2024-01-27T03:12:16;100216.59;;;7.27;100.00
33280;BME280;20403;43.114;12.434;2024-01-27T03:14:43;100216.78;;;7.26;100.00
33280;BME280;20403;43.114;12.434;2024-01-27T03:17:08;100210.16;;;7.23;100.00
33280;BME280;20403;43.114;12.434;2024-01-27T03:19:34;100207.56;;;7.23;100.00
33280;BME280;20403;43.114;12.434;2024-01-27T03:21:59;100199.47;;;7.18;100.00
33280;BME280;20403;43.114;12.434;2024-01-27T03:24:25;100195.63;;;7.14;100.00
33280;BME280;20403;43.114;12.434;2024-01-27T03:26:50;100193.81;;;7.14;100.00
33280;BME280;20403;43.114;12.434;2024-01-27T03:29:16;100190.59;;;7.12;100.00
33280;BME280;20403;43.114;12.434;2024-01-27T03:31:41;100192.19;;;7.13;100.00
33280;BME280;20403;43.114;12.434;2024-01-27T03:34:07;100192.03;;;7.15;100.00
33280;BME280;20403;43.114;12.434;2024-01-27T03:36:32;100191.09;;;7.08;100.00
33280;BME280;20403;43.114;12.434;2024-01-27T03:38:58;100180.13;;;6.98;100.00
33280;BME280;20403;43.114;12.434;2024-01-27T03:41:24;100190.56;;;6.89;100.00
33280;BME280;20403;43.114;12.434;2024-01-27T03:43:50;100193.19;;;6.81;100.00
33280;BME280;20403;43.114;12.434;2024-01-27T03:46:15;100198.38;;;6.81;100.00
33280;BME280;20403;43.114;12.434;2024-01-27T03:48:41;100189.22;;;6.62;100.00
33280;BME280;20403;43.114;12.434;2024-01-27T03:51:06;100192.03;;;6.52;100.00
33280;BME280;20403;43.114;12.434;2024-01-27T03:53:32;100196.13;;;6.39;100.00
33280;BME280;20403;43.114;12.434;2024-01-27T03:55:58;100199.84;;;6.36;100.00
33280;BME280;20403;43.114;12.434;2024-01-27T03:58:30;100202.44;;;6.36;100.00
33280;BME280;20403;43.114;12.434;2024-01-27T04:00:59;100192.94;;;6.28;100.00
33280;BME280;20403;43.114;12.434;2024-01-27T04:03:24;100195.34;;;6.30;100.00
33280;BME280;20403;43.114;12.434;2024-01-27T04:05:50;100188.09;;;6.09;100.00
33280;BME280;20403;43.114;12.434;2024-01-27T04:08:15;100184.72;;;6.00;100.00
33280;BME280;20403;43.114;12.434;2024-01-27T04:10:41;100179.84;;;5.89;100.00
33280;BME280;20403;43.114;12.434;2024-01-27T04:13:06;100181.66;;;5.80;100.00
33280;BME280;20403;43.114;12.434;2024-01-27T04:15:35;100184.75;;;5.76;100.00
33280;BME280;20403;43.114;12.434;2024-01-27T04:18:07;100181.81;;;5.71;100.00
33280;BME280;20403;43.114;12.434;2024-01-27T04:20:34;100171.63;;;5.69;100.00
33280;BME280;20403;43.114;12.434;2024-01-27T04:23:00;100168.56;;;5.74;100.00
33280;BME280;20403;43.114;12.434;2024-01-27T04:25:26;100162.88;;;5.70;100.00
33280;BME280;20403;43.114;12.434;2024-01-27T04:27:51;100162.41;;;5.66;100.00
33280;BME280;20403;43.114;12.434;2024-01-27T04:30:16;100167.59;;;5.66;100.00
33280;BME280;20403;43.114;12.434;2024-01-27T04:32:42;100151.25;;;5.74;100.00
33280;BME280;20403;43.114;12.434;2024-01-27T04:35:12;100141.69;;;5.75;100.00
33280;BME280;20403;43.114;12.434;2024-01-27T04:37:38;100136.06;;;5.63;100.00
33280;BME280;20403;43.114;12.434;2024-01-27T04:40:04;100142.88;;;5.64;100.00
33280;BME280;20403;43.114;12.434;2024-01-27T04:42:37;100136.84;;;5.63;100.00
33280;BME280;20403;43.114;12.434;2024-01-27T04:45:03;100145.59;;;5.54;100.00
33280;BME280;20403;43.114;12.434;2024-01-27T04:47:30;100144.94;;;5.52;100.00
33280;BME280;20403;43.114;12.434;2024-01-27T04:49:55;100155.78;;;5.47;100.00
33280;BME280;20403;43.114;12.434;2024-01-27T04:52:21;100163.69;;;5.54;100.00
33280;BME280;20403;43.114;12.434;2024-01-27T04:54:46;100167.91;;;5.47;100.00
33280;BME280;20403;43.114;12.434;2024-01-27T04:57:11;100174.84;;;5.38;100.00
33280;BME280;20403;43.114;12.434;2024-01-27T04:59:37;100166.97;;;5.32;100.00
33280;BME280;20403;43.114;12.434;2024-01-27T05:02:02;100169.22;;;5.35;100.00
33280;BME280;20403;43.114;12.434;2024-01-27T05:04:28;100167.25;;;5.29;100.00
33280;BME280;20403;43.114;12.434;2024-01-27T05:06:54;100174.06;;;5.30;100.00
33280;BME280;20403;43.114;12.434;2024-01-27T05:09:19;100182.13;;;5.26;100.00
33280;BME280;20403;43.114;12.434;2024-01-27T05:11:45;100190.53;;;5.29;100.00
33280;BME280;20403;43.114;12.434;2024-01-27T05:14:11;100187.63;;;5.23;100.00
33280;BME280;20403;43.114;12.434;2024-01-27T05:16:36;100189.22;;;5.16;100.00
33280;BME280;20403;43.114;12.434;2024-01-27T05:19:02;100195.53;;;5.14;100.00
33280;BME280;20403;43.114;12.434;2024-01-27T05:21:28;100187.94;;;5.04;100.00
33280;BME280;20403;43.114;12.434;2024-01-27T05:23:53;100190.47;;;4.96;100.00
33280;BME280;20403;43.114;12.434;2024-01-27T05:26:20;100190.66;;;5.02;100.00
33280;BME280;20403;43.114;12.434;2024-01-27T05:28:45;100201.63;;;4.96;100.00
33280;BME280;20403;43.114;12.434;2024-01-27T05:31:10;100207.41;;;4.82;100.00
33280;BME280;20403;43.114;12.434;2024-01-27T05:33:37;100214.66;;;4.78;100.00
33280;BME280;20403;43.114;12.434;2024-01-27T05:36:03;100203.69;;;4.76;100.00
33280;BME280;20403;43.114;12.434;2024-01-27T05:38:29;100213.66;;;4.71;100.00
33280;BME280;20403;43.114;12.434;2024-01-27T05:40:57;100219.47;;;4.73;100.00
33280;BME280;20403;43.114;12.434;2024-01-27T05:43:22;100218.19;;;4.77;100.00
33280;BME280;20403;43.114;12.434;2024-01-27T05:45:48;100211.72;;;4.73;100.00
33280;BME280;20403;43.114;12.434;2024-01-27T05:48:14;100214.75;;;4.60;100.00
33280;BME280;20403;43.114;12.434;2024-01-27T05:50:42;100217.28;;;4.52;100.00
33280;BME280;20403;43.114;12.434;2024-01-27T05:53:07;100219.06;;;4.52;100.00
33280;BME280;20403;43.114;12.434;2024-01-27T05:55:33;100225.53;;;4.56;100.00
33280;BME280;20403;43.114;12.434;2024-01-27T05:57:59;100220.00;;;4.42;100.00
33280;BME280;20403;43.114;12.434;2024-01-27T06:00:24;100218.22;;;4.43;100.00
33280;BME280;20403;43.114;12.434;2024-01-27T06:02:50;100222.63;;;4.51;100.00
33280;BME280;20403;43.114;12.434;2024-01-27T06:05:15;100227.63;;;4.52;100.00
33280;BME280;20403;43.114;12.434;2024-01-27T06:07:42;100223.19;;;4.36;100.00
33280;BME280;20403;43.114;12.434;2024-01-27T06:10:10;100229.97;;;4.37;100.00
33280;BME280;20403;43.114;12.434;2024-01-27T06:12:37;100227.78;;;4.25;100.00
33280;BME280;20403;43.114;12.434;2024-01-27T06:15:03;100227.34;;;4.29;100.00
33280;BME280;20403;43.114;12.434;2024-01-27T06:17:28;100238.88;;;4.17;100.00
33280;BME280;20403;43.114;12.434;2024-01-27T06:19:54;100227.97;;;4.23;100.00
33280;BME280;20403;43.114;12.434;2024-01-27T06:22:19;100234.38;;;4.19;100.00
33280;BME280;20403;43.114;12.434;2024-01-27T06:24:45;100231.16;;;4.25;100.00
33280;BME280;20403;43.114;12.434;2024-01-27T06:27:11;100227.31;;;4.21;100.00
33280;BME280;20403;43.114;12.434;2024-01-27T06:29:36;100231.13;;;4.17;100.00
33280;BME280;20403;43.114;12.434;2024-01-27T06:32:02;100234.28;;;4.03;100.00
33280;BME280;20403;43.114;12.434;2024-01-27T06:34:28;100231.91;;;4.09;100.00
33280;BME280;20403;43.114;12.434;2024-01-27T06:36:53;100242.97;;;4.02;100.00
33280;BME280;20403;43.114;12.434;2024-01-27T06:39:19;100257.34;;;4.04;100.00
33280;BME280;20403;43.114;12.434;2024-01-27T06:41:46;100270.19;;;3.96;100.00
33280;BME280;20403;43.114;12.434;2024-01-27T06:44:12;100267.03;;;4.02;100.00
33280;BME280;20403;43.114;12.434;2024-01-27T06:46:38;100259.44;;;3.83;100.00
33280;BME280;20403;43.114;12.434;2024-01-27T06:49:03;100262.38;;;3.88;100.00
33280;BME280;20403;43.114;12.434;2024-01-27T06:51:28;100274.38;;;3.97;100.00
33280;BME280;20403;43.114;12.434;2024-01-27T06:53:54;100268.78;;;4.02;100.00
33280;BME280;20403;43.114;12.434;2024-01-27T06:56:19;100272.41;;;3.91;100.00
33280;BME280;20403;43.114;12.434;2024-01-27T06:58:45;100271.09;;;3.87;100.00
33280;BME280;20403;43.114;12.434;2024-01-27T07:01:10;100276.25;;;3.87;100.00
33280;BME280;20403;43.114;12.434;2024-01-27T07:03:35;100271.97;;;3.95;100.00
33280;BME280;20403;43.114;12.434;2024-01-27T07:06:01;100284.25;;;4.02;100.00
33280;BME280;20403;43.114;12.434;2024-01-27T07:08:27;100288.75;;;3.99;100.00
33280;BME280;20403;43.114;12.434;2024-01-27T07:10:52;100287.50;;;4.04;100.00
33280;BME280;20403;43.114;12.434;2024-01-27T07:13:17;100289.03;;;4.14;100.00
33280;BME280;20403;43.114;12.434;2024-01-27T07:15:43;100297.91;;;4.12;100.00
33280;BME280;20403;43.114;12.434;2024-01-27T07:18:08;100296.34;;;4.19;100.00
33280;BME280;20403;43.114;12.434;2024-01-27T07:20:34;100293.31;;;4.06;100.00
33280;BME280;20403;43.114;12.434;2024-01-27T07:23:00;100298.03;;;4.10;100.00
33280;BME280;20403;43.114;12.434;2024-01-27T07:25:26;100297.66;;;4.23;100.00
33280;BME280;20403;43.114;12.434;2024-01-27T07:27:53;100292.84;;;4.28;100.00
33280;BME280;20403;43.114;12.434;2024-01-27T07:30:19;100284.59;;;4.25;100.00
33280;BME280;20403;43.114;12.434;2024-01-27T07:32:44;100278.38;;;4.35;100.00
33280;BME280;20403;43.114;12.434;2024-01-27T07:35:10;100284.97;;;4.64;100.00
33280;BME280;20403;43.114;12.434;2024-01-27T07:37:35;100297.63;;;4.75;100.00
33280;BME280;20403;43.114;12.434;2024-01-27T07:40:01;100295.66;;;5.03;100.00
33280;BME280;20403;43.114;12.434;2024-01-27T07:42:27;100300.22;;;5.68;100.00
33280;BME280;20403;43.114;12.434;2024-01-27T07:44:52;100289.34;;;6.63;100.00
33280;BME280;20403;43.114;12.434;2024-01-27T07:47:18;100287.06;;;7.39;100.00
33280;BME280;20403;43.114;12.434;2024-01-27T07:49:43;100286.22;;;7.93;100.00
33280;BME280;20403;43.114;12.434;2024-01-27T07:52:10;100282.81;;;8.45;100.00
33280;BME280;20403;43.114;12.434;2024-01-27T07:54:35;100288.16;;;8.67;100.00
33280;BME280;20403;43.114;12.434;2024-01-27T07:57:05;100289.72;;;8.97;100.00
33280;BME280;20403;43.114;12.434;2024-01-27T07:59:31;100293.03;;;9.06;100.00
33280;BME280;20403;43.114;12.434;2024-01-27T08:01:56;100298.16;;;8.99;100.00
33280;BME280;20403;43.114;12.434;2024-01-27T08:04:22;100290.28;;;8.78;100.00
33280;BME280;20403;43.114;12.434;2024-01-27T08:06:48;100292.44;;;8.45;100.00
33280;BME280;20403;43.114;12.434;2024-01-27T08:09:15;100294.53;;;8.26;100.00
33280;BME280;20403;43.114;12.434;2024-01-27T08:11:40;100287.94;;;8.15;100.00
33280;BME280;20403;43.114;12.434;2024-01-27T08:14:05;100296.28;;;8.11;100.00
33280;BME280;20403;43.114;12.434;2024-01-27T08:16:31;100292.56;;;8.28;100.00
33280;BME280;20403;43.114;12.434;2024-01-27T08:18:56;100288.78;;;8.16;100.00
33280;BME280;20403;43.114;12.434;2024-01-27T08:21:22;100298.06;;;8.10;100.00
33280;BME280;20403;43.114;12.434;2024-01-27T08:23:48;100287.72;;;8.25;100.00
33280;BME280;20403;43.114;12.434;2024-01-27T08:26:13;100291.88;;;8.49;100.00
33280;BME280;20403;43.114;12.434;2024-01-27T08:28:39;100293.16;;;8.68;100.00
33280;BME280;20403;43.114;12.434;2024-01-27T08:31:04;100304.66;;;8.74;100.00
33280;BME280;20403;43.114;12.434;2024-01-27T08:33:30;100308.47;;;8.78;100.00
33280;BME280;20403;43.114;12.434;2024-01-27T08:35:56;100302.91;;;8.96;100.00
33280;BME280;20403;43.114;12.434;2024-01-27T08:38:22;100311.94;;;9.15;100.00
33280;BME280;20403;43.114;12.434;2024-01-27T08:40:48;100317.56;;;9.33;100.00
33280;BME280;20403;43.114;12.434;2024-01-27T08:43:13;100321.13;;;9.47;100.00
33280;BME280;20403;43.114;12.434;2024-01-27T08:45:39;100314.06;;;9.62;100.00
33280;BME280;20403;43.114;12.434;2024-01-27T08:48:05;100318.09;;;9.65;100.00
33280;BME280;20403;43.114;12.434;2024-01-27T08:50:31;100315.00;;;9.76;100.00
33280;BME280;20403;43.114;12.434;2024-01-27T08:52:56;100321.16;;;9.90;100.00
33280;BME280;20403;43.114;12.434;2024-01-27T08:55:21;100313.69;;;10.08;100.00
33280;BME280;20403;43.114;12.434;2024-01-27T08:57:49;100315.63;;;10.21;100.00
33280;BME280;20403;43.114;12.434;2024-01-27T09:00:15;100311.31;;;10.14;100.00
33280;BME280;20403;43.114;12.434;2024-01-27T09:02:45;100318.53;;;10.12;100.00
33280;BME280;20403;43.114;12.434;2024-01-27T09:05:11;100319.94;;;10.14;100.00
33280;BME280;20403;43.114;12.434;2024-01-27T09:07:36;100330.47;;;10.27;100.00
33280;BME280;20403;43.114;12.434;2024-01-27T09:10:02;100327.22;;;10.40;100.00
33280;BME280;20403;43.114;12.434;2024-01-27T09:12:28;100325.16;;;10.64;100.00
33280;BME280;20403;43.114;12.434;2024-01-27T09:14:53;100319.44;;;10.82;100.00
33280;BME280;20403;43.114;12.434;2024-01-27T09:17:20;100317.97;;;11.07;100.00
33280;BME280;20403;43.114;12.434;2024-01-27T09:19:45;100320.44;;;11.29;100.00
33280;BME280;20403;43.114;12.434;2024-01-27T09:22:11;100321.72;;;11.53;100.00
33280;BME280;20403;43.114;12.434;2024-01-27T09:24:36;100329.19;;;11.63;100.00
33280;BME280;20403;43.114;12.434;2024-01-27T09:27:02;100330.22;;;11.82;100.00
33280;BME280;20403;43.114;12.434;2024-01-27T09:29:27;100322.19;;;11.83;100.00
33280;BME280;20403;43.114;12.434;2024-01-27T09:31:52;100324.81;;;11.83;100.00
33280;BME280;20403;43.114;12.434;2024-01-27T09:34:18;100329.66;;;12.00;100.00
33280;BME280;20403;43.114;12.434;2024-01-27T09:36:43;100321.44;;;12.29;100.00
33280;BME280;20403;43.114;12.434;2024-01-27T09:39:09;100326.59;;;12.56;100.00
33280;BME280;20403;43.114;12.434;2024-01-27T09:41:34;100318.34;;;12.59;100.00
33280;BME280;20403;43.114;12.434;2024-01-27T09:44:04;100329.81;;;12.71;100.00
33280;BME280;20403;43.114;12.434;2024-01-27T09:46:31;100332.25;;;12.59;100.00
33280;BME280;20403;43.114;12.434;2024-01-27T09:48:57;100330.88;;;12.44;100.00
33280;BME280;20403;43.114;12.434;2024-01-27T09:51:23;100331.06;;;12.49;100.00
33280;BME280;20403;43.114;12.434;2024-01-27T09:53:49;100337.88;;;12.50;100.00
33280;BME280;20403;43.114;12.434;2024-01-27T09:56:17;100341.09;;;12.52;100.00
33280;BME280;20403;43.114;12.434;2024-01-27T09:58:44;100332.25;;;12.59;100.00
33280;BME280;20403;43.114;12.434;2024-01-27T10:01:10;100336.66;;;12.59;100.00
33280;BME280;20403;43.114;12.434;2024-01-27T10:03:38;100336.88;;;12.64;100.00
33280;BME280;20403;43.114;12.434;2024-01-27T10:06:08;100335.41;;;12.81;100.00
33280;BME280;20403;43.114;12.434;2024-01-27T10:08:34;100335.75;;;12.98;100.00
33280;BME280;20403;43.114;12.434;2024-01-27T10:10:59;100337.31;;;13.19;100.00
33280;BME280;20403;43.114;12.434;2024-01-27T10:13:32;100326.56;;;13.41;100.00
33280;BME280;20403;43.114;12.434;2024-01-27T10:16:07;100327.53;;;13.47;100.00
33280;BME280;20403;43.114;12.434;2024-01-27T10:18:34;100333.00;;;13.45;100.00
33280;BME280;20403;43.114;12.434;2024-01-27T10:20:59;100322.50;;;13.45;100.00
33280;BME280;20403;43.114;12.434;2024-01-27T10:23:25;100327.94;;;13.43;100.00
33280;BME280;20403;43.114;12.434;2024-01-27T10:25:51;100331.50;;;13.56;100.00
33280;BME280;20403;43.114;12.434;2024-01-27T10:28:17;100325.22;;;13.63;100.00
33280;BME280;20403;43.114;12.434;2024-01-27T10:30:44;100325.75;;;13.72;100.00
33280;BME280;20403;43.114;12.434;2024-01-27T10:33:10;100326.25;;;13.87;100.00
33280;BME280;20403;43.114;12.434;2024-01-27T10:35:36;100325.47;;;13.87;100.00
33280;BME280;20403;43.114;12.434;2024-01-27T10:38:02;100328.84;;;13.94;100.00
33280;BME280;20403;43.114;12.434;2024-01-27T10:40:27;100319.50;;;14.05;100.00
33280;BME280;20403;43.114;12.434;2024-01-27T10:43:11;100314.81;;;13.82;100.00
33280;BME280;20403;43.114;12.434;2024-01-27T10:45:41;100312.31;;;13.94;100.00
33280;BME280;20403;43.114;12.434;2024-01-27T10:48:09;100317.13;;;13.97;100.00
33280;BME280;20403;43.114;12.434;2024-01-27T10:50:37;100314.25;;;14.05;100.00
33280;BME280;20403;43.114;12.434;2024-01-27T10:53:04;100313.38;;;14.11;100.00
33280;BME280;20403;43.114;12.434;2024-01-27T10:55:33;100311.13;;;14.15;100.00
33280;BME280;20403;43.114;12.434;2024-01-27T10:58:01;100312.03;;;14.27;100.00
33280;BME280;20403;43.114;12.434;2024-01-27T11:00:27;100312.75;;;14.34;100.00
33280;BME280;20403;43.114;12.434;2024-01-27T11:02:53;100316.94;;;14.42;100.00
33280;BME280;20403;43.114;12.434;2024-01-27T11:05:24;100314.25;;;14.48;100.00
33280;BME280;20403;43.114;12.434;2024-01-27T11:07:49;100308.47;;;14.65;100.00
33280;BME280;20403;43.114;12.434;2024-01-27T11:10:17;100302.25;;;14.78;100.00
33280;BME280;20403;43.114;12.434;2024-01-27T11:12:43;100299.69;;;14.71;100.00
33280;BME280;20403;43.114;12.434;2024-01-27T11:15:10;100296.72;;;14.67;100.00
33280;BME280;20403;43.114;12.434;2024-01-27T11:17:42;100292.03;;;14.69;100.00
33280;BME280;20403;43.114;12.434;2024-01-27T11:20:08;100288.69;;;14.81;100.00
33280;BME280;20403;43.114;12.434;2024-01-27T11:22:37;100293.66;;;14.70;100.00
33280;BME280;20403;43.114;12.434;2024-01-27T11:27:38;100281.09;;;14.91;100.00
33280;BME280;20403;43.114;12.434;2024-01-27T11:30:04;100282.56;;;14.87;100.00
33280;BME280;20403;43.114;12.434;2024-01-27T11:32:30;100279.69;;;15.07;100.00
33280;BME280;20403;43.114;12.434;2024-01-27T11:34:56;100285.16;;;15.05;100.00
33280;BME280;20403;43.114;12.434;2024-01-27T11:37:23;100279.69;;;15.07;100.00
33280;BME280;20403;43.114;12.434;2024-01-27T11:39:51;100277.66;;;15.09;100.00
33280;BME280;20403;43.114;12.434;2024-01-27T11:42:19;100264.22;;;14.99;100.00
33280;BME280;20403;43.114;12.434;2024-01-27T11:44:45;100257.47;;;14.91;100.00
33280;BME280;20403;43.114;12.434;2024-01-27T11:47:18;100264.06;;;15.12;100.00
33280;BME280;20403;43.114;12.434;2024-01-27T11:49:50;100260.06;;;15.09;100.00
33280;BME280;20403;43.114;12.434;2024-01-27T11:52:17;100254.44;;;15.06;100.00
33280;BME280;20403;43.114;12.434;2024-01-27T11:54:43;100257.31;;;15.04;100.00
33280;BME280;20403;43.114;12.434;2024-01-27T11:57:09;100250.44;;;15.03;100.00
33280;BME280;20403;43.114;12.434;2024-01-27T11:59:34;100250.25;;;15.17;100.00
33280;BME280;20403;43.114;12.434;2024-01-27T12:02:01;100249.00;;;15.19;100.00
33280;BME280;20403;43.114;12.434;2024-01-27T12:04:27;100246.09;;;15.27;100.00
33280;BME280;20403;43.114;12.434;2024-01-27T12:06:53;100245.63;;;15.30;100.00
33280;BME280;20403;43.114;12.434;2024-01-27T12:09:19;100240.81;;;15.27;100.00
33280;BME280;20403;43.114;12.434;2024-01-27T12:11:45;100238.63;;;15.24;100.00
33280;BME280;20403;43.114;12.434;2024-01-27T12:14:11;100236.44;;;15.21;100.00
33280;BME280;20403;43.114;12.434;2024-01-27T12:16:37;100241.63;;;15.28;100.00
33280;BME280;20403;43.114;12.434;2024-01-27T12:19:03;100242.22;;;15.42;100.00
33280;BME280;20403;43.114;12.434;2024-01-27T12:21:28;100252.66;;;15.60;100.00
33280;BME280;20403;43.114;12.434;2024-01-27T12:23:55;100248.41;;;15.59;100.00
33280;BME280;20403;43.114;12.434;2024-01-27T12:26:22;100239.06;;;15.63;100.00
33280;BME280;20403;43.114;12.434;2024-01-27T12:28:48;100239.19;;;15.68;100.00
33280;BME280;20403;43.114;12.434;2024-01-27T12:31:17;100235.78;;;15.80;100.00
33280;BME280;20403;43.114;12.434;2024-01-27T12:33:54;100235.22;;;15.89;100.00